sensor_id;sensor_type;location;lat;lon;timestamp;pressure;altitude;pressure_sealevel;temperature;humidity
69247;BME280;56358;56.328;43.992;2022-12-19T00:02:00;100928.31;;;-8.06;75.19
69247;BME280;56358;56.328;43.992;2022-12-19T00:04:03;100933.53;;;-8.03;75.43
69247;BME280;56358;56.328;43.992;2022-12-19T00:06:04;100933.53;;;-8.07;75.06
69247;BME280;56358;56.328;43.992;2022-12-19T00:08:11;100926.56;;;-8.09;75.03
69247;BME280;56358;56.328;43.992;2022-12-19T00:10:13;100858.66;;;-8.58;75.19
69247;BME280;56358;56.328;43.992;2022-12-19T00:12:13;100956.88;;;-8.15;75.25
69247;BME280;56358;56.328;43.992;2022-12-19T00:14:15;100952.53;;;-8.13;75.49
69247;BME280;56358;56.328;43.992;2022-12-19T00:16:18;100964.69;;;-8.14;75.09
69247;BME280;56358;56.328;43.992;2022-12-19T00:18:20;100919.44;;;-8.40;74.82
69247;BME280;56358;56.328;43.992;2022-12-19T00:20:21;100950.78;;;-8.17;75.32
69247;BME280;56358;56.328;43.992;2022-12-19T00:22:21;100965.53;;;-8.18;75.27
69247;BME280;56358;56.328;43.992;2022-12-19T00:24:22;100951.59;;;-8.26;75.47
69247;BME280;56358;56.328;43.992;2022-12-19T00:26:25;100964.69;;;-8.15;75.24
69247;BME280;56358;56.328;43.992;2022-12-19T00:28:26;100967.28;;;-8.15;75.23
69247;BME280;56358;56.328;43.992;2022-12-19T00:30:27;100969.03;;;-8.13;75.12
69247;BME280;56358;56.328;43.992;2022-12-19T00:32:27;100957.69;;;-8.22;74.69
69247;BME280;56358;56.328;43.992;2022-12-19T00:34:28;100979.41;;;-8.17;74.71
69247;BME280;56358;56.328;43.992;2022-12-19T00:36:31;100982.81;;;-8.28;74.86
69247;BME280;56358;56.328;43.992;2022-12-19T00:38:32;101008.84;;;-8.23;74.70
69247;BME280;56358;56.328;43.992;2022-12-19T00:40:33;100984.53;;;-8.28;74.92
69247;BME280;56358;56.328;43.992;2022-12-19T00:42:34;100992.34;;;-8.27;74.94
69247;BME280;56358;56.328;43.992;2022-12-19T00:44:34;100998.38;;;-8.31;74.55
69247;BME280;56358;56.328;43.992;2022-12-19T00:46:35;101026.13;;;-8.34;74.91
69247;BME280;56358;56.328;43.992;2022-12-19T00:48:36;101010.44;;;-8.40;75.01
69247;BME280;56358;56.328;43.992;2022-12-19T00:50:36;100930.28;;;-8.96;74.58
69247;BME280;56358;56.328;43.992;2022-12-19T00:52:37;101025.16;;;-8.50;74.81
69247;BME280;56358;56.328;43.992;2022-12-19T00:54:38;101027.59;;;-8.63;75.23
69247;BME280;56358;56.328;43.992;2022-12-19T00:56:38;100948.38;;;-9.08;74.90
69247;BME280;56358;56.328;43.992;2022-12-19T00:58:39;101031.88;;;-8.69;74.72
69247;BME280;56358;56.328;43.992;2022-12-19T01:00:40;101036.13;;;-8.76;74.71
69247;BME280;56358;56.328;43.992;2022-12-19T01:02:41;101043.03;;;-8.81;74.96
69247;BME280;56358;56.328;43.992;2022-12-19T01:04:41;100995.88;;;-9.15;75.17
69247;BME280;56358;56.328;43.992;2022-12-19T01:06:42;101023.84;;;-8.94;75.74
69247;BME280;56358;56.328;43.992;2022-12-19T01:08:43;101029.03;;;-8.93;75.24
69247;BME280;56358;56.328;43.992;2022-12-19T01:10:48;101068.94;;;-8.87;75.11
69247;BME280;56358;56.328;43.992;2022-12-19T01:12:49;101072.34;;;-8.93;75.12
69247;BME280;56358;56.328;43.992;2022-12-19T01:14:54;101074.00;;;-9.00;75.23
69247;BME280;56358;56.328;43.992;2022-12-19T01:16:54;101050.44;;;-9.14;75.58
69247;BME280;56358;56.328;43.992;2022-12-19T01:18:55;101072.19;;;-9.07;75.83
69247;BME280;56358;56.328;43.992;2022-12-19T01:20:59;101077.44;;;-9.04;75.59
69247;BME280;56358;56.328;43.992;2022-12-19T01:23:00;101070.53;;;-9.00;75.67
69247;BME280;56358;56.328;43.992;2022-12-19T01:25:00;101055.72;;;-9.07;75.79
69247;BME280;56358;56.328;43.992;2022-12-19T01:27:01;101064.47;;;-9.02;75.76
69247;BME280;56358;56.328;43.992;2022-12-19T01:29:03;101078.41;;;-8.94;76.14
69247;BME280;56358;56.328;43.992;2022-12-19T01:31:05;101070.59;;;-8.97;76.14
69247;BME280;56358;56.328;43.992;2022-12-19T01:33:05;100986.09;;;-9.38;76.21
69247;BME280;56358;56.328;43.992;2022-12-19T01:35:08;101074.16;;;-8.86;76.06
69247;BME280;56358;56.328;43.992;2022-12-19T01:37:09;100993.19;;;-9.24;75.89
69247;BME280;56358;56.328;43.992;2022-12-19T01:39:09;101090.72;;;-8.78;75.42
69247;BME280;56358;56.328;43.992;2022-12-19T01:41:10;101103.59;;;-8.88;74.72
69247;BME280;56358;56.328;43.992;2022-12-19T01:43:12;101080.72;;;-9.17;74.65
69247;BME280;56358;56.328;43.992;2022-12-19T01:47:14;101021.88;;;-9.83;75.68
69247;BME280;56358;56.328;43.992;2022-12-19T01:51:30;101107.31;;;-9.35;76.61
69247;BME280;56358;56.328;43.992;2022-12-19T01:53:37;101103.91;;;-9.33;76.39
69247;BME280;56358;56.328;43.992;2022-12-19T01:55:41;101093.31;;;-9.48;76.46
69247;BME280;56358;56.328;43.992;2022-12-19T01:57:43;101083.81;;;-9.46;76.36
69247;BME280;56358;56.328;43.992;2022-12-19T01:59:56;101109.09;;;-9.33;76.34
69247;BME280;56358;56.328;43.992;2022-12-19T02:02:03;101102.09;;;-9.38;76.56
69247;BME280;56358;56.328;43.992;2022-12-19T02:04:07;101082.97;;;-9.44;76.35
69247;BME280;56358;56.328;43.992;2022-12-19T02:06:08;101125.47;;;-9.37;76.68
69247;BME280;56358;56.328;43.992;2022-12-19T02:08:09;101072.31;;;-9.64;76.73
69247;BME280;56358;56.328;43.992;2022-12-19T02:10:10;101116.06;;;-9.29;77.21
69247;BME280;56358;56.328;43.992;2022-12-19T02:12:11;101113.50;;;-9.26;76.78
69247;BME280;56358;56.328;43.992;2022-12-19T02:14:12;101044.69;;;-9.60;76.18
69247;BME280;56358;56.328;43.992;2022-12-19T02:16:49;101112.63;;;-9.28;75.95
69247;BME280;56358;56.328;43.992;2022-12-19T02:19:04;101007.00;;;-9.95;76.32
69247;BME280;56358;56.328;43.992;2022-12-19T02:33:01;101092.50;;;-9.44;77.21
69247;BME280;56358;56.328;43.992;2022-12-19T02:37:17;101101.09;;;-9.48;76.52
69247;BME280;56358;56.328;43.992;2022-12-19T02:40:06;101123.72;;;-9.39;76.71
69247;BME280;56358;56.328;43.992;2022-12-19T02:42:00;101128.25;;;-9.24;76.86
69247;BME280;56358;56.328;43.992;2022-12-19T02:44:02;101124.88;;;-9.17;76.62
69247;BME280;56358;56.328;43.992;2022-12-19T02:46:04;100976.53;;;-10.09;76.26
69247;BME280;56358;56.328;43.992;2022-12-19T02:48:06;101130.91;;;-9.21;76.34
69247;BME280;56358;56.328;43.992;2022-12-19T02:50:08;101104.72;;;-9.35;76.57
69247;BME280;56358;56.328;43.992;2022-12-19T02:54:09;101051.59;;;-9.59;76.37
69247;BME280;56358;56.328;43.992;2022-12-19T02:56:32;101136.25;;;-9.09;76.20
69247;BME280;56358;56.328;43.992;2022-12-19T02:59:37;101140.44;;;-9.19;76.05
69247;BME280;56358;56.328;43.992;2022-12-19T03:01:28;101158.56;;;-9.23;76.45
69247;BME280;56358;56.328;43.992;2022-12-19T03:06:07;101149.09;;;-9.21;76.58
69247;BME280;56358;56.328;43.992;2022-12-19T03:08:25;101155.03;;;-9.27;76.27
69247;BME280;56358;56.328;43.992;2022-12-19T03:10:33;101064.25;;;-9.84;76.37
69247;BME280;56358;56.328;43.992;2022-12-19T03:12:52;101172.19;;;-9.38;76.61
69247;BME280;56358;56.328;43.992;2022-12-19T03:14:56;101164.44;;;-9.37;77.01
69247;BME280;56358;56.328;43.992;2022-12-19T03:17:05;101154.06;;;-9.35;76.92
69247;BME280;56358;56.328;43.992;2022-12-19T03:19:09;101156.75;;;-9.31;77.32
69247;BME280;56358;56.328;43.992;2022-12-19T03:21:19;101088.59;;;-9.74;76.97
69247;BME280;56358;56.328;43.992;2022-12-19T03:23:20;101185.34;;;-9.26;76.50
69247;BME280;56358;56.328;43.992;2022-12-19T03:25:21;101173.16;;;-9.32;76.63
69247;BME280;56358;56.328;43.992;2022-12-19T03:27:29;101189.59;;;-9.33;76.68
69247;BME280;56358;56.328;43.992;2022-12-19T03:29:35;101192.09;;;-9.39;76.46
69247;BME280;56358;56.328;43.992;2022-12-19T03:31:38;101198.91;;;-9.46;76.68
69247;BME280;56358;56.328;43.992;2022-12-19T03:33:40;101169.25;;;-9.62;76.45
69247;BME280;56358;56.328;43.992;2022-12-19T03:35:42;101196.25;;;-9.50;76.75
69247;BME280;56358;56.328;43.992;2022-12-19T03:37:46;101169.13;;;-9.69;76.54
69247;BME280;56358;56.328;43.992;2022-12-19T03:39:54;101202.22;;;-9.56;76.69
69247;BME280;56358;56.328;43.992;2022-12-19T03:41:58;101199.59;;;-9.57;76.62
69247;BME280;56358;56.328;43.992;2022-12-19T03:44:20;101204.69;;;-9.64;76.65
69247;BME280;56358;56.328;43.992;2022-12-19T03:46:22;101187.34;;;-9.65;76.88
69247;BME280;56358;56.328;43.992;2022-12-19T03:55:07;101192.66;;;-9.60;76.57
69247;BME280;56358;56.328;43.992;2022-12-19T03:57:32;101155.09;;;-9.81;76.73
69247;BME280;56358;56.328;43.992;2022-12-19T04:00:12;101194.41;;;-9.57;76.53
69247;BME280;56358;56.328;43.992;2022-12-19T04:02:06;101198.81;;;-9.53;76.29
69247;BME280;56358;56.328;43.992;2022-12-19T04:04:11;101211.78;;;-9.53;76.68
69247;BME280;56358;56.328;43.992;2022-12-19T04:06:13;101205.72;;;-9.52;76.58
69247;BME280;56358;56.328;43.992;2022-12-19T04:08:14;101205.78;;;-9.49;76.53
69247;BME280;56358;56.328;43.992;2022-12-19T04:10:19;101211.88;;;-9.47;76.84
69247;BME280;56358;56.328;43.992;2022-12-19T04:12:26;101214.28;;;-9.58;76.59
69247;BME280;56358;56.328;43.992;2022-12-19T04:14:38;101218.78;;;-9.49;76.18
69247;BME280;56358;56.328;43.992;2022-12-19T04:16:46;101210.00;;;-9.57;76.31
69247;BME280;56358;56.328;43.992;2022-12-19T04:18:55;101196.75;;;-9.73;76.33
69247;BME280;56358;56.328;43.992;2022-12-19T04:21:01;101214.06;;;-9.72;76.01
69247;BME280;56358;56.328;43.992;2022-12-19T04:23:13;101238.28;;;-9.73;76.18
69247;BME280;56358;56.328;43.992;2022-12-19T04:25:20;101228.56;;;-9.83;76.38
69247;BME280;56358;56.328;43.992;2022-12-19T04:27:23;101160.53;;;-10.17;76.23
69247;BME280;56358;56.328;43.992;2022-12-19T04:29:25;101243.31;;;-9.81;75.97
69247;BME280;56358;56.328;43.992;2022-12-19T04:31:27;101204.81;;;-10.06;75.45
69247;BME280;56358;56.328;43.992;2022-12-19T04:33:28;101241.28;;;-9.99;75.45
69247;BME280;56358;56.328;43.992;2022-12-19T04:35:29;101240.16;;;-10.12;75.79
69247;BME280;56358;56.328;43.992;2022-12-19T04:37:30;101241.28;;;-9.99;75.14
69247;BME280;56358;56.328;43.992;2022-12-19T04:39:31;101266.25;;;-10.04;74.42
69247;BME280;56358;56.328;43.992;2022-12-19T04:41:32;101043.44;;;-11.37;74.10
69247;BME280;56358;56.328;43.992;2022-12-19T04:43:33;101198.44;;;-10.71;73.82
69247;BME280;56358;56.328;43.992;2022-12-19T04:45:34;101254.22;;;-10.46;74.38
69247;BME280;56358;56.328;43.992;2022-12-19T04:47:35;101251.19;;;-10.66;74.44
69247;BME280;56358;56.328;43.992;2022-12-19T04:49:35;101263.38;;;-10.62;74.77
69247;BME280;56358;56.328;43.992;2022-12-19T04:51:36;101264.31;;;-10.60;75.53
69247;BME280;56358;56.328;43.992;2022-12-19T04:53:36;101253.88;;;-10.63;74.94
69247;BME280;56358;56.328;43.992;2022-12-19T04:55:37;101266.13;;;-10.54;75.05
69247;BME280;56358;56.328;43.992;2022-12-19T04:57:39;101212.81;;;-10.86;75.08
69247;BME280;56358;56.328;43.992;2022-12-19T04:59:40;101265.50;;;-10.44;75.13
69247;BME280;56358;56.328;43.992;2022-12-19T05:01:40;101262.94;;;-10.42;74.93
69247;BME280;56358;56.328;43.992;2022-12-19T05:03:41;101269.94;;;-10.38;74.91
69247;BME280;56358;56.328;43.992;2022-12-19T05:05:41;101268.25;;;-10.36;75.18
69247;BME280;56358;56.328;43.992;2022-12-19T05:07:42;101280.44;;;-10.31;75.29
69247;BME280;56358;56.328;43.992;2022-12-19T05:09:43;101274.28;;;-10.34;75.07
69247;BME280;56358;56.328;43.992;2022-12-19T05:11:44;101244.41;;;-10.61;74.12
69247;BME280;56358;56.328;43.992;2022-12-19T05:13:44;101290.63;;;-10.40;73.69
69247;BME280;56358;56.328;43.992;2022-12-19T05:15:57;101291.41;;;-10.44;73.32
69247;BME280;56358;56.328;43.992;2022-12-19T05:17:58;101273.88;;;-10.56;73.54
69247;BME280;56358;56.328;43.992;2022-12-19T05:19:59;101292.97;;;-10.52;73.18
69247;BME280;56358;56.328;43.992;2022-12-19T05:22:00;101293.59;;;-10.64;73.01
69247;BME280;56358;56.328;43.992;2022-12-19T05:24:00;101297.06;;;-10.62;73.33
69247;BME280;56358;56.328;43.992;2022-12-19T05:26:03;101296.94;;;-10.68;73.21
69247;BME280;56358;56.328;43.992;2022-12-19T05:28:04;101317.00;;;-10.59;72.74
69247;BME280;56358;56.328;43.992;2022-12-19T05:30:05;101322.09;;;-10.64;72.49
69247;BME280;56358;56.328;43.992;2022-12-19T05:32:06;101243.34;;;-11.09;72.44
69247;BME280;56358;56.328;43.992;2022-12-19T05:34:06;101322.06;;;-10.66;72.68
69247;BME280;56358;56.328;43.992;2022-12-19T05:36:08;101300.06;;;-10.83;72.21
69247;BME280;56358;56.328;43.992;2022-12-19T05:38:08;101300.84;;;-10.87;72.50
69247;BME280;56358;56.328;43.992;2022-12-19T05:40:09;101231.63;;;-11.31;72.38
69247;BME280;56358;56.328;43.992;2022-12-19T05:42:10;101326.84;;;-10.83;72.21
69247;BME280;56358;56.328;43.992;2022-12-19T05:44:11;101251.41;;;-11.33;72.25
69247;BME280;56358;56.328;43.992;2022-12-19T05:46:11;101334.34;;;-10.95;72.22
69247;BME280;56358;56.328;43.992;2022-12-19T05:48:12;101345.47;;;-10.99;72.18
69247;BME280;56358;56.328;43.992;2022-12-19T05:50:14;101307.03;;;-11.17;72.65
69247;BME280;56358;56.328;43.992;2022-12-19T05:52:14;101319.31;;;-11.10;72.52
69247;BME280;56358;56.328;43.992;2022-12-19T05:54:15;101320.19;;;-11.09;72.64
69247;BME280;56358;56.328;43.992;2022-12-19T05:56:18;101320.25;;;-11.06;73.25
69247;BME280;56358;56.328;43.992;2022-12-19T05:58:18;101327.31;;;-11.01;72.71
69247;BME280;56358;56.328;43.992;2022-12-19T06:00:19;101235.38;;;-11.55;72.98
69247;BME280;56358;56.328;43.992;2022-12-19T06:02:21;101327.34;;;-10.99;72.79
69247;BME280;56358;56.328;43.992;2022-12-19T06:04:21;101340.41;;;-10.93;72.91
69247;BME280;56358;56.328;43.992;2022-12-19T06:06:24;101240.84;;;-11.42;72.65
69247;BME280;56358;56.328;43.992;2022-12-19T06:08:25;101337.88;;;-10.91;72.54
69247;BME280;56358;56.328;43.992;2022-12-19T06:10:26;101335.88;;;-11.03;73.04
69247;BME280;56358;56.328;43.992;2022-12-19T06:12:26;101346.63;;;-10.86;72.60
69247;BME280;56358;56.328;43.992;2022-12-19T06:14:27;101343.09;;;-10.90;72.19
69247;BME280;56358;56.328;43.992;2022-12-19T06:16:28;101341.09;;;-11.02;72.31
69247;BME280;56358;56.328;43.992;2022-12-19T06:18:29;101355.88;;;-10.96;72.40
69247;BME280;56358;56.328;43.992;2022-12-19T06:20:30;101345.50;;;-10.98;72.58
69247;BME280;56358;56.328;43.992;2022-12-19T06:22:30;101323.63;;;-11.09;72.93
69247;BME280;56358;56.328;43.992;2022-12-19T06:24:31;101351.50;;;-10.99;72.77
69247;BME280;56358;56.328;43.992;2022-12-19T06:26:32;101332.34;;;-11.05;72.29
69247;BME280;56358;56.328;43.992;2022-12-19T06:28:33;101362.16;;;-10.86;72.31
69247;BME280;56358;56.328;43.992;2022-12-19T06:30:34;101343.53;;;-11.06;72.31
69247;BME280;56358;56.328;43.992;2022-12-19T06:32:34;101283.09;;;-11.45;72.30
69247;BME280;56358;56.328;43.992;2022-12-19T06:34:35;101376.56;;;-10.98;72.70
69247;BME280;56358;56.328;43.992;2022-12-19T06:36:36;101369.59;;;-11.00;72.66
69247;BME280;56358;56.328;43.992;2022-12-19T06:38:37;101371.44;;;-10.96;72.82
69247;BME280;56358;56.328;43.992;2022-12-19T06:40:42;101385.19;;;-10.99;72.41
69247;BME280;56358;56.328;43.992;2022-12-19T06:43:01;101376.66;;;-10.95;72.60
69247;BME280;56358;56.328;43.992;2022-12-19T06:45:02;101381.91;;;-10.91;72.63
69247;BME280;56358;56.328;43.992;2022-12-19T06:47:04;101388.94;;;-10.87;72.37
69247;BME280;56358;56.328;43.992;2022-12-19T06:49:05;101370.84;;;-10.84;72.35
69247;BME280;56358;56.328;43.992;2022-12-19T06:51:06;101371.81;;;-10.81;72.55
69247;BME280;56358;56.328;43.992;2022-12-19T06:53:06;101372.75;;;-10.77;72.10
69247;BME280;56358;56.328;43.992;2022-12-19T06:55:07;101376.09;;;-10.81;72.01
69247;BME280;56358;56.328;43.992;2022-12-19T06:57:08;101382.97;;;-10.83;72.19
69247;BME280;56358;56.328;43.992;2022-12-19T06:59:11;101386.47;;;-10.81;72.42
69247;BME280;56358;56.328;43.992;2022-12-19T07:01:19;101365.78;;;-10.80;72.21
69247;BME280;56358;56.328;43.992;2022-12-19T07:03:26;101273.09;;;-11.30;72.14
69247;BME280;56358;56.328;43.992;2022-12-19T07:05:29;101358.09;;;-10.76;71.83
69247;BME280;56358;56.328;43.992;2022-12-19T07:07:31;101368.47;;;-10.76;71.53
69247;BME280;56358;56.328;43.992;2022-12-19T07:09:32;101373.66;;;-10.75;71.55
69247;BME280;56358;56.328;43.992;2022-12-19T07:11:33;101348.28;;;-10.90;71.64
69247;BME280;56358;56.328;43.992;2022-12-19T07:13:34;101397.22;;;-10.66;71.30
69247;BME280;56358;56.328;43.992;2022-12-19T07:15:35;101377.28;;;-10.68;71.01
69247;BME280;56358;56.328;43.992;2022-12-19T07:17:36;101341.03;;;-11.05;70.70
69247;BME280;56358;56.328;43.992;2022-12-19T07:19:38;101394.25;;;-10.81;71.04
69247;BME280;56358;56.328;43.992;2022-12-19T07:21:38;101393.69;;;-10.68;71.25
69247;BME280;56358;56.328;43.992;2022-12-19T07:23:39;101307.06;;;-11.16;70.85
69247;BME280;56358;56.328;43.992;2022-12-19T07:25:40;101381.56;;;-10.69;70.60
69247;BME280;56358;56.328;43.992;2022-12-19T07:27:41;101391.22;;;-10.63;70.41
69247;BME280;56358;56.328;43.992;2022-12-19T07:29:42;101387.19;;;-10.87;70.20
69247;BME280;56358;56.328;43.992;2022-12-19T07:31:43;101359.16;;;-11.05;70.75
69247;BME280;56358;56.328;43.992;2022-12-19T07:33:43;101406.53;;;-10.74;70.72
69247;BME280;56358;56.328;43.992;2022-12-19T07:35:44;101393.44;;;-10.79;70.61
69247;BME280;56358;56.328;43.992;2022-12-19T07:37:45;101418.47;;;-10.79;70.34
69247;BME280;56358;56.328;43.992;2022-12-19T07:39:46;101403.78;;;-10.80;70.53
69247;BME280;56358;56.328;43.992;2022-12-19T07:41:47;101392.94;;;-10.99;70.49
69247;BME280;56358;56.328;43.992;2022-12-19T07:43:48;101393.44;;;-10.79;70.41
69247;BME280;56358;56.328;43.992;2022-12-19T07:45:53;101359.25;;;-11.00;70.54
69247;BME280;56358;56.328;43.992;2022-12-19T07:47:54;101352.19;;;-11.07;70.04
69247;BME280;56358;56.328;43.992;2022-12-19T07:49:55;101362.78;;;-10.97;69.56
69247;BME280;56358;56.328;43.992;2022-12-19T07:51:56;101267.19;;;-11.59;69.50
69247;BME280;56358;56.328;43.992;2022-12-19T07:53:56;101393.19;;;-10.89;69.92
69247;BME280;56358;56.328;43.992;2022-12-19T07:55:57;101292.53;;;-11.46;70.00
69247;BME280;56358;56.328;43.992;2022-12-19T07:57:58;101389.69;;;-10.91;69.77
69247;BME280;56358;56.328;43.992;2022-12-19T07:59:59;101415.53;;;-10.93;69.94
69247;BME280;56358;56.328;43.992;2022-12-19T08:01:59;101403.38;;;-10.96;69.83
69247;BME280;56358;56.328;43.992;2022-12-19T08:04:00;101416.31;;;-10.96;69.98
69247;BME280;56358;56.328;43.992;2022-12-19T08:06:03;101402.69;;;-10.90;70.16
69247;BME280;56358;56.328;43.992;2022-12-19T08:08:04;101416.13;;;-11.05;69.54
69247;BME280;56358;56.328;43.992;2022-12-19T08:10:05;101323.72;;;-11.41;69.70
69247;BME280;56358;56.328;43.992;2022-12-19T08:12:06;101393.16;;;-10.91;70.05
69247;BME280;56358;56.328;43.992;2022-12-19T08:14:07;101390.81;;;-10.80;69.79
69247;BME280;56358;56.328;43.992;2022-12-19T08:16:08;101283.25;;;-11.37;69.45
69247;BME280;56358;56.328;43.992;2022-12-19T08:18:08;101395.22;;;-10.76;68.89
69247;BME280;56358;56.328;43.992;2022-12-19T08:20:10;101396.75;;;-10.84;68.25
69247;BME280;56358;56.328;43.992;2022-12-19T08:22:11;101346.66;;;-11.20;68.66
69247;BME280;56358;56.328;43.992;2022-12-19T08:24:11;101406.25;;;-10.85;68.99
69247;BME280;56358;56.328;43.992;2022-12-19T08:26:17;101394.91;;;-10.90;69.07
69247;BME280;56358;56.328;43.992;2022-12-19T08:28:24;101292.47;;;-11.49;69.27
69247;BME280;56358;56.328;43.992;2022-12-19T08:30:24;101408.09;;;-10.81;68.49
69247;BME280;56358;56.328;43.992;2022-12-19T08:32:25;101410.63;;;-10.82;68.66
69247;BME280;56358;56.328;43.992;2022-12-19T08:34:26;101385.03;;;-11.05;68.54
69247;BME280;56358;56.328;43.992;2022-12-19T08:36:26;101403.34;;;-10.97;68.10
69247;BME280;56358;56.328;43.992;2022-12-19T08:38:27;101378.22;;;-11.01;68.38
69247;BME280;56358;56.328;43.992;2022-12-19T08:40:27;101399.22;;;-10.89;68.43
69247;BME280;56358;56.328;43.992;2022-12-19T08:42:28;101398.31;;;-10.91;68.43
69247;BME280;56358;56.328;43.992;2022-12-19T08:44:29;101405.16;;;-10.93;68.04
69247;BME280;56358;56.328;43.992;2022-12-19T08:46:29;101393.78;;;-11.00;68.06
69247;BME280;56358;56.328;43.992;2022-12-19T08:48:31;101383.34;;;-11.03;68.23
69247;BME280;56358;56.328;43.992;2022-12-19T08:50:32;101280.13;;;-11.59;68.02
69247;BME280;56358;56.328;43.992;2022-12-19T08:52:33;101280.25;;;-11.54;68.01
69247;BME280;56358;56.328;43.992;2022-12-19T08:54:33;101393.19;;;-10.89;67.79
69247;BME280;56358;56.328;43.992;2022-12-19T08:56:34;101386.25;;;-10.90;67.63
69247;BME280;56358;56.328;43.992;2022-12-19T08:58:35;101376.59;;;-10.96;67.83
69247;BME280;56358;56.328;43.992;2022-12-19T09:00:36;101382.75;;;-10.92;67.57
69247;BME280;56358;56.328;43.992;2022-12-19T09:02:36;101384.50;;;-10.91;67.90
69247;BME280;56358;56.328;43.992;2022-12-19T09:04:37;101358.28;;;-11.04;67.84
69247;BME280;56358;56.328;43.992;2022-12-19T09:06:38;101388.00;;;-10.89;67.85
69247;BME280;56358;56.328;43.992;2022-12-19T09:08:39;101371.44;;;-10.96;67.48
69247;BME280;56358;56.328;43.992;2022-12-19T09:10:40;101389.75;;;-10.88;67.41
69247;BME280;56358;56.328;43.992;2022-12-19T09:12:41;101310.00;;;-11.38;67.38
69247;BME280;56358;56.328;43.992;2022-12-19T09:14:41;101369.44;;;-11.06;67.14
69247;BME280;56358;56.328;43.992;2022-12-19T09:16:43;101346.56;;;-11.24;67.23
69247;BME280;56358;56.328;43.992;2022-12-19T09:18:46;101283.31;;;-11.69;67.59
69247;BME280;56358;56.328;43.992;2022-12-19T09:20:47;101353.13;;;-11.37;67.72
69247;BME280;56358;56.328;43.992;2022-12-19T09:22:47;101374.34;;;-11.51;67.47
69247;BME280;56358;56.328;43.992;2022-12-19T09:24:48;101357.81;;;-11.56;67.76
69247;BME280;56358;56.328;43.992;2022-12-19T09:26:49;101374.09;;;-11.60;68.10
69247;BME280;56358;56.328;43.992;2022-12-19T09:28:50;101393.72;;;-11.68;68.04
69247;BME280;56358;56.328;43.992;2022-12-19T09:31:02;101391.88;;;-11.72;68.46
69247;BME280;56358;56.328;43.992;2022-12-19T09:33:03;101391.78;;;-11.77;68.57
69247;BME280;56358;56.328;43.992;2022-12-19T09:35:04;101381.47;;;-11.75;68.67
69247;BME280;56358;56.328;43.992;2022-12-19T09:37:07;101383.03;;;-11.81;68.63
69247;BME280;56358;56.328;43.992;2022-12-19T09:39:09;101380.38;;;-11.84;69.02
69247;BME280;56358;56.328;43.992;2022-12-19T09:41:46;101385.50;;;-11.85;69.02
69247;BME280;56358;56.328;43.992;2022-12-19T09:48:44;101370.63;;;-11.92;68.71
69247;BME280;56358;56.328;43.992;2022-12-19T09:50:56;101406.22;;;-11.85;68.95
69247;BME280;56358;56.328;43.992;2022-12-19T09:53:02;101349.47;;;-12.11;69.00
69247;BME280;56358;56.328;43.992;2022-12-19T09:55:33;101310.69;;;-12.41;68.86
69247;BME280;56358;56.328;43.992;2022-12-19T09:57:37;101297.78;;;-12.41;68.89
69247;BME280;56358;56.328;43.992;2022-12-19T09:59:43;101391.38;;;-11.91;69.11
69247;BME280;56358;56.328;43.992;2022-12-19T10:01:58;101389.69;;;-11.90;69.16
69247;BME280;56358;56.328;43.992;2022-12-19T10:04:10;101384.50;;;-11.90;69.44
69247;BME280;56358;56.328;43.992;2022-12-19T10:06:16;101382.69;;;-11.93;69.46
69247;BME280;56358;56.328;43.992;2022-12-19T10:08:23;101375.72;;;-11.97;69.05
69247;BME280;56358;56.328;43.992;2022-12-19T10:15:30;101222.03;;;-13.00;69.53
69247;BME280;56358;56.328;43.992;2022-12-19T10:20:58;101385.09;;;-12.01;69.94
69247;BME280;56358;56.328;43.992;2022-12-19T10:22:32;101371.84;;;-12.11;69.81
69247;BME280;56358;56.328;43.992;2022-12-19T10:27:38;101390.19;;;-12.04;69.95
69247;BME280;56358;56.328;43.992;2022-12-19T10:34:00;101393.72;;;-12.00;70.07
69247;BME280;56358;56.328;43.992;2022-12-19T10:36:08;101396.41;;;-11.97;70.17
69247;BME280;56358;56.328;43.992;2022-12-19T10:38:28;101389.53;;;-11.97;69.97
69247;BME280;56358;56.328;43.992;2022-12-19T10:40:41;101397.97;;;-12.02;69.78
69247;BME280;56358;56.328;43.992;2022-12-19T10:44:50;101357.84;;;-12.20;69.99
69247;BME280;56358;56.328;43.992;2022-12-19T10:46:52;101388.66;;;-11.97;70.22
69247;BME280;56358;56.328;43.992;2022-12-19T10:48:53;101385.31;;;-11.91;70.36
69247;BME280;56358;56.328;43.992;2022-12-19T10:50:54;101394.13;;;-11.85;70.29
69247;BME280;56358;56.328;43.992;2022-12-19T10:53:06;101350.63;;;-12.01;69.86
69247;BME280;56358;56.328;43.992;2022-12-19T10:55:48;101388.47;;;-11.71;69.91
69247;BME280;56358;56.328;43.992;2022-12-19T10:57:47;101385.97;;;-11.68;69.81
69247;BME280;56358;56.328;43.992;2022-12-19T11:00:15;101386.94;;;-11.65;69.78
69247;BME280;56358;56.328;43.992;2022-12-19T11:04:32;101381.19;;;-11.54;69.74
69247;BME280;56358;56.328;43.992;2022-12-19T11:08:35;101377.88;;;-11.49;69.87
69247;BME280;56358;56.328;43.992;2022-12-19T11:10:43;101390.91;;;-11.44;69.51
69247;BME280;56358;56.328;43.992;2022-12-19T11:12:51;101361.25;;;-11.58;69.36
69247;BME280;56358;56.328;43.992;2022-12-19T11:15:12;101363.97;;;-11.52;69.46
69247;BME280;56358;56.328;43.992;2022-12-19T11:19:34;101361.34;;;-11.54;69.59
69247;BME280;56358;56.328;43.992;2022-12-19T11:21:35;101384.63;;;-11.54;70.00
69247;BME280;56358;56.328;43.992;2022-12-19T11:23:47;101370.97;;;-11.48;70.07
69247;BME280;56358;56.328;43.992;2022-12-19T11:26:00;101379.75;;;-11.43;69.87
69247;BME280;56358;56.328;43.992;2022-12-19T11:28:03;101401.53;;;-11.35;69.70
69247;BME280;56358;56.328;43.992;2022-12-19T11:30:08;101386.81;;;-11.36;69.73
69247;BME280;56358;56.328;43.992;2022-12-19T11:32:28;101397.25;;;-11.34;69.67